XAA446 EFHK-UUWW
Flight info
| Callsign | XAA446 |
|---|---|
| Flight time | 1h 18m |
| Altitude | 39000 |
| Route | ARVEP T82 RATMU DCT INLOG T73 DESUD T834 ADOKU/K0937F270 T834 BEKIP BEKIP3B |
| Aircraft | C750/M-SBDE3FGHRWXY/S |
Departure
| Time | 2026-04-23 17:57 |
|---|---|
| Airport | Helsinki Vantaa Airport (EFHK) |
Arrival
| Time | 2026-04-23 19:16 |
|---|---|
| Airport | Vnukovo International Airport (UUWW) |
| Time | Latitude | Longitude | Altitude | Speed | Heading |
|---|---|---|---|---|---|
| 2026-04-23 17:26 | 60.30841 | 24.98002 | 158 ft | 0 kts | 208° |
| 2026-04-23 17:43 | 60.30840 | 24.98001 | 158 ft | 1 kts | 208° |
| 2026-04-23 17:43 | 60.30839 | 24.98001 | 158 ft | 0 kts | 209° |
| 2026-04-23 17:44 | 60.30832 | 24.97988 | 159 ft | 5 kts | 227° |
| 2026-04-23 17:44 | 60.30884 | 24.97951 | 158 ft | 8 kts | 59° |
| 2026-04-23 17:45 | 60.30914 | 24.98078 | 157 ft | 11 kts | 64° |
| 2026-04-23 17:45 | 60.31044 | 24.98147 | 154 ft | 12 kts | 335° |
| 2026-04-23 17:45 | 60.31128 | 24.98062 | 155 ft | 16 kts | 333° |
| 2026-04-23 17:46 | 60.31389 | 24.97794 | 153 ft | 22 kts | 335° |
| 2026-04-23 17:46 | 60.31530 | 24.97648 | 152 ft | 23 kts | 332° |
| 2026-04-23 17:46 | 60.31664 | 24.97509 | 155 ft | 20 kts | 333° |
| 2026-04-23 17:47 | 60.31784 | 24.97385 | 157 ft | 20 kts | 333° |
| 2026-04-23 17:47 | 60.31903 | 24.97264 | 159 ft | 18 kts | 334° |
| 2026-04-23 17:47 | 60.32086 | 24.97073 | 162 ft | 13 kts | 332° |
| 2026-04-23 17:48 | 60.32193 | 24.96962 | 162 ft | 22 kts | 333° |
| 2026-04-23 17:48 | 60.32310 | 24.96842 | 162 ft | 4 kts | 322° |
| 2026-04-23 17:48 | 60.32306 | 24.96793 | 162 ft | 8 kts | 231° |
| 2026-04-23 17:48 | 60.32241 | 24.96649 | 164 ft | 20 kts | 229° |
| 2026-04-23 17:49 | 60.32135 | 24.96415 | 165 ft | 21 kts | 228° |
| 2026-04-23 17:49 | 60.32053 | 24.96228 | 165 ft | 16 kts | 235° |
| 2026-04-23 17:49 | 60.32004 | 24.96124 | 165 ft | 0 kts | 226° |
| 2026-04-23 17:51 | 60.31990 | 24.96094 | 165 ft | 10 kts | 226° |
| 2026-04-23 17:51 | 60.31922 | 24.95945 | 166 ft | 19 kts | 227° |
| 2026-04-23 17:51 | 60.31753 | 24.95572 | 167 ft | 18 kts | 227° |
| 2026-04-23 17:52 | 60.31669 | 24.95386 | 167 ft | 19 kts | 228° |
| 2026-04-23 17:52 | 60.31479 | 24.94971 | 165 ft | 21 kts | 228° |
| 2026-04-23 17:52 | 60.31406 | 24.94760 | 160 ft | 13 kts | 265° |
| 2026-04-23 17:53 | 60.31407 | 24.94739 | 160 ft | 2 kts | 281° |
| 2026-04-23 17:53 | 60.31438 | 24.94650 | 160 ft | 12 kts | 318° |
| 2026-04-23 17:53 | 60.31538 | 24.94573 | 160 ft | 19 kts | 9° |
| 2026-04-23 17:54 | 60.31572 | 24.94614 | 161 ft | 0 kts | 46° |
| 2026-04-23 17:56 | 60.31573 | 24.94616 | 161 ft | 3 kts | 46° |
| 2026-04-23 17:56 | 60.31768 | 24.95041 | 170 ft | 93 kts | 48° |
| 2026-04-23 17:57 | 60.32373 | 24.96362 | 318 ft | 142 kts | 45° |
| 2026-04-23 17:57 | 60.33060 | 24.97919 | 852 ft | 153 kts | 46° |
| 2026-04-23 17:57 | 60.34580 | 25.01319 | 1905 ft | 177 kts | 43° |
| 2026-04-23 17:58 | 60.35476 | 25.03242 | 2228 ft | 200 kts | 43° |
| 2026-04-23 17:58 | 60.36481 | 25.05427 | 2572 ft | 227 kts | 44° |
| 2026-04-23 17:58 | 60.37617 | 25.07927 | 3040 ft | 249 kts | 44° |
| 2026-04-23 17:58 | 60.38636 | 25.10586 | 3826 ft | 244 kts | 58° |
| 2026-04-23 17:59 | 60.39070 | 25.14023 | 3965 ft | 260 kts | 85° |
| 2026-04-23 17:59 | 60.38692 | 25.17640 | 3978 ft | 269 kts | 109° |
| 2026-04-23 17:59 | 60.37868 | 25.21113 | 4790 ft | 270 kts | 114° |
| 2026-04-23 17:59 | 60.37046 | 25.24509 | 5848 ft | 271 kts | 112° |
| 2026-04-23 18:00 | 60.36449 | 25.28129 | 6710 ft | 271 kts | 98° |
| 2026-04-23 18:00 | 60.36145 | 25.31911 | 7649 ft | 275 kts | 93° |
| 2026-04-23 18:00 | 60.35831 | 25.35778 | 8592 ft | 282 kts | 95° |
| 2026-04-23 18:00 | 60.35385 | 25.39696 | 9537 ft | 290 kts | 97° |
| 2026-04-23 18:01 | 60.34902 | 25.43695 | 10265 ft | 298 kts | 96° |
| 2026-04-23 18:01 | 60.34440 | 25.47898 | 10489 ft | 323 kts | 95° |
| 2026-04-23 18:01 | 60.33945 | 25.52531 | 10560 ft | 351 kts | 96° |
| 2026-04-23 18:01 | 60.33550 | 25.56024 | 10866 ft | 359 kts | 97° |
| 2026-04-23 18:02 | 60.33168 | 25.59281 | 11371 ft | 360 kts | 97° |
| 2026-04-23 18:02 | 60.32412 | 25.65914 | 12305 ft | 366 kts | 96° |
| 2026-04-23 18:02 | 60.31852 | 25.70946 | 13029 ft | 369 kts | 96° |
| 2026-04-23 18:02 | 60.31275 | 25.76030 | 13688 ft | 374 kts | 96° |
| 2026-04-23 18:03 | 60.30685 | 25.81164 | 14275 ft | 378 kts | 95° |
| 2026-04-23 18:03 | 60.30088 | 25.86356 | 14891 ft | 381 kts | 95° |
| 2026-04-23 18:03 | 60.29488 | 25.91592 | 15478 ft | 385 kts | 95° |
| 2026-04-23 18:03 | 60.28887 | 25.96811 | 16061 ft | 390 kts | 94° |
| 2026-04-23 18:04 | 60.28264 | 26.02168 | 16686 ft | 394 kts | 94° |
| 2026-04-23 18:04 | 60.27636 | 26.07568 | 17308 ft | 398 kts | 94° |
| 2026-04-23 18:04 | 60.27000 | 26.13029 | 17948 ft | 403 kts | 94° |
| 2026-04-23 18:04 | 60.26350 | 26.18573 | 18541 ft | 407 kts | 94° |
| 2026-04-23 18:05 | 60.25692 | 26.24152 | 19123 ft | 411 kts | 94° |
| 2026-04-23 18:05 | 60.25027 | 26.29783 | 19704 ft | 415 kts | 93° |
| 2026-04-23 18:05 | 60.24582 | 26.33538 | 20154 ft | 417 kts | 93° |
| 2026-04-23 18:05 | 60.23902 | 26.39246 | 20785 ft | 421 kts | 93° |
| 2026-04-23 18:06 | 60.22989 | 26.46894 | 21525 ft | 427 kts | 93° |
| 2026-04-23 18:06 | 60.22285 | 26.52740 | 22089 ft | 432 kts | 93° |
| 2026-04-23 18:06 | 60.21802 | 26.56717 | 22466 ft | 435 kts | 93° |
| 2026-04-23 18:06 | 60.21088 | 26.62664 | 23025 ft | 439 kts | 93° |
| 2026-04-23 18:07 | 60.20366 | 26.68662 | 23552 ft | 444 kts | 93° |
| 2026-04-23 18:07 | 60.19633 | 26.74640 | 24034 ft | 447 kts | 93° |
| 2026-04-23 18:07 | 60.18882 | 26.80723 | 24548 ft | 450 kts | 93° |
| 2026-04-23 18:07 | 60.18129 | 26.86855 | 25051 ft | 453 kts | 92° |
| 2026-04-23 18:08 | 60.17372 | 26.93019 | 25559 ft | 455 kts | 92° |
| 2026-04-23 18:08 | 60.16720 | 26.99213 | 26017 ft | 453 kts | 89° |
| 2026-04-23 18:08 | 60.16130 | 27.05444 | 26549 ft | 456 kts | 88° |
| 2026-04-23 18:08 | 60.15519 | 27.11723 | 27064 ft | 459 kts | 89° |
| 2026-04-23 18:09 | 60.14891 | 27.18039 | 27580 ft | 462 kts | 88° |
| 2026-04-23 18:09 | 60.14263 | 27.24396 | 28110 ft | 465 kts | 88° |
| 2026-04-23 18:09 | 60.13635 | 27.30789 | 28636 ft | 468 kts | 88° |
| 2026-04-23 18:09 | 60.12997 | 27.37212 | 29150 ft | 471 kts | 88° |
| 2026-04-23 18:10 | 60.12348 | 27.43677 | 29656 ft | 475 kts | 88° |
| 2026-04-23 18:10 | 60.11691 | 27.50194 | 30113 ft | 478 kts | 88° |
| 2026-04-23 18:10 | 60.11031 | 27.56744 | 30499 ft | 482 kts | 88° |
| 2026-04-23 18:10 | 60.10361 | 27.63345 | 30963 ft | 485 kts | 88° |
| 2026-04-23 18:11 | 60.09688 | 27.69864 | 31575 ft | 483 kts | 89° |
| 2026-04-23 18:11 | 60.09009 | 27.76454 | 32119 ft | 482 kts | 89° |
| 2026-04-23 18:11 | 60.08335 | 27.83035 | 32651 ft | 483 kts | 89° |
| 2026-04-23 18:11 | 60.07651 | 27.89640 | 33208 ft | 483 kts | 90° |
| 2026-04-23 18:12 | 60.06961 | 27.96223 | 33764 ft | 483 kts | 90° |
| 2026-04-23 18:12 | 60.06269 | 28.02808 | 34232 ft | 484 kts | 91° |
| 2026-04-23 18:12 | 60.05576 | 28.09394 | 34699 ft | 484 kts | 91° |
| 2026-04-23 18:12 | 60.04879 | 28.15981 | 35183 ft | 484 kts | 92° |
| 2026-04-23 18:13 | 60.04177 | 28.22561 | 35655 ft | 484 kts | 92° |
| 2026-04-23 18:13 | 60.03470 | 28.29160 | 36139 ft | 484 kts | 92° |
| 2026-04-23 18:13 | 60.02763 | 28.35733 | 36699 ft | 483 kts | 93° |
| 2026-04-23 18:13 | 60.02053 | 28.42290 | 37234 ft | 482 kts | 94° |
| 2026-04-23 18:14 | 60.01342 | 28.48838 | 37735 ft | 482 kts | 94° |
| 2026-04-23 18:14 | 60.00626 | 28.55396 | 38237 ft | 482 kts | 94° |
| 2026-04-23 18:14 | 59.99905 | 28.61961 | 38701 ft | 482 kts | 95° |
| 2026-04-23 18:14 | 59.99182 | 28.68530 | 38839 ft | 490 kts | 95° |
| 2026-04-23 18:15 | 59.98442 | 28.75252 | 38838 ft | 501 kts | 95° |
| 2026-04-23 18:15 | 59.96874 | 28.89099 | 38841 ft | 521 kts | 96° |
| 2026-04-23 18:16 | 59.95176 | 29.03394 | 38832 ft | 533 kts | 97° |
| 2026-04-23 18:16 | 59.93492 | 29.17780 | 38834 ft | 538 kts | 97° |
| 2026-04-23 18:17 | 59.90874 | 29.39592 | 38830 ft | 540 kts | 97° |
| 2026-04-23 18:17 | 59.89114 | 29.54139 | 38830 ft | 540 kts | 97° |
| 2026-04-23 18:18 | 59.87331 | 29.68679 | 38827 ft | 539 kts | 97° |
| 2026-04-23 18:18 | 59.85545 | 29.83150 | 38823 ft | 539 kts | 97° |
| 2026-04-23 18:19 | 59.83738 | 29.97606 | 38823 ft | 539 kts | 97° |
| 2026-04-23 18:19 | 59.81914 | 30.12081 | 38805 ft | 541 kts | 98° |
| 2026-04-23 18:20 | 59.80037 | 30.26564 | 38844 ft | 541 kts | 98° |
| 2026-04-23 18:20 | 59.78155 | 30.40997 | 38806 ft | 538 kts | 98° |
| 2026-04-23 18:21 | 59.76276 | 30.55287 | 38820 ft | 539 kts | 98° |
| 2026-04-23 18:21 | 59.74346 | 30.69675 | 38816 ft | 541 kts | 100° |
| 2026-04-23 18:22 | 59.71165 | 30.83377 | 38803 ft | 555 kts | 116° |
| 2026-04-23 18:22 | 59.66750 | 30.96033 | 38817 ft | 560 kts | 120° |
| 2026-04-23 18:23 | 59.60355 | 31.15278 | 38810 ft | 559 kts | 119° |
| 2026-04-23 18:24 | 59.53803 | 31.34313 | 38802 ft | 558 kts | 118° |
| 2026-04-23 18:25 | 59.47249 | 31.53319 | 38798 ft | 558 kts | 119° |
| 2026-04-23 18:25 | 59.42931 | 31.65898 | 38795 ft | 559 kts | 119° |
| 2026-04-23 18:26 | 59.38531 | 31.78474 | 38796 ft | 559 kts | 119° |
| 2026-04-23 18:26 | 59.34143 | 31.91056 | 38821 ft | 559 kts | 119° |
| 2026-04-23 18:27 | 59.29743 | 32.03535 | 38784 ft | 555 kts | 120° |
| 2026-04-23 18:27 | 59.25349 | 32.15987 | 38784 ft | 556 kts | 119° |
| 2026-04-23 18:28 | 59.20927 | 32.28412 | 38777 ft | 557 kts | 120° |
| 2026-04-23 18:28 | 59.16505 | 32.40794 | 38777 ft | 557 kts | 120° |
| 2026-04-23 18:29 | 59.12084 | 32.53090 | 38773 ft | 551 kts | 120° |
| 2026-04-23 18:29 | 59.07673 | 32.65318 | 38767 ft | 553 kts | 120° |
| 2026-04-23 18:30 | 59.03237 | 32.77530 | 38765 ft | 553 kts | 120° |
| 2026-04-23 18:30 | 58.98796 | 32.89708 | 38758 ft | 553 kts | 120° |
| 2026-04-23 18:31 | 58.94338 | 33.01861 | 38753 ft | 553 kts | 121° |
| 2026-04-23 18:31 | 58.90509 | 33.12253 | 38752 ft | 553 kts | 121° |
| 2026-04-23 18:32 | 58.85627 | 33.23660 | 38745 ft | 558 kts | 128° |
| 2026-04-23 18:32 | 58.80336 | 33.34641 | 38753 ft | 558 kts | 128° |
| 2026-04-23 18:33 | 58.75133 | 33.45743 | 38753 ft | 558 kts | 128° |
| 2026-04-23 18:33 | 58.69848 | 33.56703 | 38748 ft | 558 kts | 128° |
| 2026-04-23 18:34 | 58.64603 | 33.67707 | 38729 ft | 557 kts | 128° |
| 2026-04-23 18:34 | 58.59320 | 33.78618 | 38726 ft | 558 kts | 128° |
| 2026-04-23 18:35 | 58.54049 | 33.89528 | 38738 ft | 559 kts | 129° |
| 2026-04-23 18:35 | 58.48746 | 34.00405 | 38728 ft | 559 kts | 129° |
| 2026-04-23 18:36 | 58.44218 | 34.09669 | 38724 ft | 555 kts | 129° |
| 2026-04-23 18:36 | 58.38922 | 34.20465 | 38722 ft | 558 kts | 129° |
| 2026-04-23 18:37 | 58.34360 | 34.29705 | 38728 ft | 557 kts | 129° |
| 2026-04-23 18:37 | 58.29064 | 34.40404 | 38728 ft | 556 kts | 129° |
| 2026-04-23 18:38 | 58.24505 | 34.49568 | 38722 ft | 555 kts | 130° |
| 2026-04-23 18:38 | 58.19132 | 34.59913 | 38692 ft | 558 kts | 135° |
| 2026-04-23 18:39 | 58.13133 | 34.69292 | 38711 ft | 559 kts | 138° |
| 2026-04-23 18:39 | 58.07211 | 34.78713 | 38706 ft | 556 kts | 136° |
| 2026-04-23 18:40 | 58.01255 | 34.88067 | 38704 ft | 557 kts | 137° |
| 2026-04-23 18:40 | 57.95277 | 34.97418 | 38699 ft | 557 kts | 137° |
| 2026-04-23 18:41 | 57.89310 | 35.06742 | 38690 ft | 557 kts | 138° |
| 2026-04-23 18:41 | 57.83333 | 35.15994 | 38691 ft | 556 kts | 137° |
| 2026-04-23 18:42 | 57.77369 | 35.25231 | 38688 ft | 556 kts | 138° |
| 2026-04-23 18:42 | 57.71386 | 35.34415 | 38680 ft | 556 kts | 137° |
| 2026-04-23 18:43 | 57.65435 | 35.43545 | 38682 ft | 556 kts | 138° |
| 2026-04-23 18:43 | 57.59122 | 35.51777 | 38654 ft | 557 kts | 150° |
| 2026-04-23 18:44 | 57.51859 | 35.56889 | 38663 ft | 560 kts | 163° |
| 2026-04-23 18:44 | 57.44308 | 35.60539 | 38663 ft | 560 kts | 163° |
| 2026-04-23 18:45 | 57.36909 | 35.65120 | 38652 ft | 560 kts | 159° |
| 2026-04-23 18:45 | 57.29582 | 35.69888 | 38635 ft | 555 kts | 154° |
| 2026-04-23 18:46 | 57.23035 | 35.77330 | 38632 ft | 552 kts | 142° |
| 2026-04-23 18:46 | 57.16934 | 35.85943 | 38642 ft | 553 kts | 142° |
| 2026-04-23 18:47 | 57.10560 | 35.93728 | 38633 ft | 554 kts | 145° |
| 2026-04-23 18:47 | 57.07405 | 35.97726 | 38440 ft | 542 kts | 143° |
| 2026-04-23 18:47 | 57.04398 | 36.01753 | 37625 ft | 527 kts | 142° |
| 2026-04-23 18:47 | 57.01453 | 36.05580 | 36928 ft | 511 kts | 144° |
| 2026-04-23 18:48 | 56.98544 | 36.09157 | 36272 ft | 496 kts | 144° |
| 2026-04-23 18:48 | 56.95721 | 36.12660 | 35632 ft | 486 kts | 143° |
| 2026-04-23 18:48 | 56.92965 | 36.16209 | 34988 ft | 482 kts | 143° |
| 2026-04-23 18:48 | 56.90211 | 36.19748 | 34354 ft | 485 kts | 143° |
| 2026-04-23 18:49 | 56.87415 | 36.23241 | 33716 ft | 487 kts | 144° |
| 2026-04-23 18:49 | 56.84613 | 36.26720 | 33010 ft | 487 kts | 143° |
| 2026-04-23 18:49 | 56.81833 | 36.30269 | 32361 ft | 486 kts | 142° |
| 2026-04-23 18:49 | 56.79233 | 36.34152 | 31727 ft | 484 kts | 138° |
| 2026-04-23 18:50 | 56.78357 | 36.35484 | 31511 ft | 484 kts | 138° |
| 2026-04-23 18:50 | 56.74906 | 36.40655 | 30663 ft | 485 kts | 139° |
| 2026-04-23 18:50 | 56.72289 | 36.44532 | 30011 ft | 485 kts | 139° |
| 2026-04-23 18:50 | 56.69691 | 36.48404 | 29329 ft | 478 kts | 139° |
| 2026-04-23 18:51 | 56.67148 | 36.52206 | 28693 ft | 470 kts | 139° |
| 2026-04-23 18:51 | 56.64632 | 36.55933 | 28066 ft | 460 kts | 140° |
| 2026-04-23 18:51 | 56.62208 | 36.59496 | 27471 ft | 438 kts | 140° |
| 2026-04-23 18:51 | 56.59894 | 36.62911 | 26908 ft | 418 kts | 140° |
| 2026-04-23 18:52 | 56.57738 | 36.66229 | 26368 ft | 404 kts | 136° |
| 2026-04-23 18:52 | 56.55686 | 36.69671 | 26432 ft | 398 kts | 137° |
| 2026-04-23 18:52 | 56.53613 | 36.72958 | 26540 ft | 403 kts | 138° |
| 2026-04-23 18:52 | 56.51499 | 36.76344 | 26571 ft | 407 kts | 137° |
| 2026-04-23 18:53 | 56.49223 | 36.79471 | 26509 ft | 423 kts | 152° |
| 2026-04-23 18:53 | 56.46359 | 36.81023 | 26554 ft | 439 kts | 171° |
| 2026-04-23 18:53 | 56.43322 | 36.81660 | 26141 ft | 437 kts | 175° |
| 2026-04-23 18:53 | 56.40276 | 36.82077 | 25551 ft | 437 kts | 176° |
| 2026-04-23 18:54 | 56.37280 | 36.82664 | 24972 ft | 429 kts | 172° |
| 2026-04-23 18:54 | 56.34362 | 36.83511 | 24409 ft | 421 kts | 171° |
| 2026-04-23 18:54 | 56.31487 | 36.84289 | 23852 ft | 413 kts | 173° |
| 2026-04-23 18:54 | 56.28645 | 36.84884 | 23300 ft | 406 kts | 174° |
| 2026-04-23 18:55 | 56.25885 | 36.85473 | 22718 ft | 394 kts | 173° |
| 2026-04-23 18:55 | 56.23159 | 36.86150 | 22196 ft | 395 kts | 172° |
| 2026-04-23 18:55 | 56.20435 | 36.86829 | 21674 ft | 394 kts | 173° |
| 2026-04-23 18:55 | 56.17754 | 36.87445 | 21161 ft | 392 kts | 173° |
| 2026-04-23 18:56 | 56.15054 | 36.88058 | 20648 ft | 390 kts | 173° |
| 2026-04-23 18:56 | 56.12368 | 36.88695 | 20115 ft | 387 kts | 173° |
| 2026-04-23 18:56 | 56.09713 | 36.89328 | 19608 ft | 384 kts | 173° |
| 2026-04-23 18:56 | 56.07056 | 36.89944 | 19101 ft | 385 kts | 173° |
| 2026-04-23 18:57 | 56.04403 | 36.90557 | 18590 ft | 383 kts | 173° |
| 2026-04-23 18:57 | 56.01767 | 36.91177 | 18091 ft | 381 kts | 173° |
| 2026-04-23 18:57 | 55.99204 | 36.91778 | 17561 ft | 360 kts | 173° |
| 2026-04-23 18:57 | 55.96783 | 36.92340 | 17085 ft | 344 kts | 173° |
| 2026-04-23 18:58 | 55.94432 | 36.92883 | 16641 ft | 339 kts | 173° |
| 2026-04-23 18:58 | 55.92102 | 36.93210 | 16534 ft | 337 kts | 178° |
| 2026-04-23 18:58 | 55.89753 | 36.93538 | 16493 ft | 341 kts | 174° |
| 2026-04-23 18:58 | 55.87420 | 36.93949 | 16268 ft | 341 kts | 174° |
| 2026-04-23 18:59 | 55.85052 | 36.94285 | 15976 ft | 341 kts | 176° |
| 2026-04-23 18:59 | 55.82676 | 36.94571 | 15662 ft | 342 kts | 176° |
| 2026-04-23 18:59 | 55.80302 | 36.94889 | 15359 ft | 342 kts | 175° |
| 2026-04-23 18:59 | 55.77903 | 36.95236 | 15053 ft | 340 kts | 175° |
| 2026-04-23 19:00 | 55.75603 | 36.95554 | 14754 ft | 328 kts | 175° |
| 2026-04-23 19:00 | 55.73371 | 36.95885 | 14390 ft | 318 kts | 172° |
| 2026-04-23 19:00 | 55.71189 | 36.96544 | 13961 ft | 315 kts | 170° |
| 2026-04-23 19:00 | 55.69020 | 36.97119 | 13628 ft | 316 kts | 171° |
| 2026-04-23 19:01 | 55.66845 | 36.97685 | 13306 ft | 316 kts | 170° |
| 2026-04-23 19:01 | 55.64691 | 36.98295 | 12966 ft | 310 kts | 170° |
| 2026-04-23 19:01 | 55.62582 | 36.98901 | 12654 ft | 306 kts | 170° |
| 2026-04-23 19:01 | 55.60482 | 36.99484 | 12488 ft | 306 kts | 170° |
| 2026-04-23 19:02 | 55.58354 | 36.99771 | 12449 ft | 308 kts | 180° |
| 2026-04-23 19:02 | 55.56193 | 36.99743 | 12235 ft | 312 kts | 180° |
| 2026-04-23 19:02 | 55.54037 | 36.99735 | 11959 ft | 308 kts | 179° |
| 2026-04-23 19:02 | 55.51900 | 36.99747 | 11654 ft | 307 kts | 179° |
| 2026-04-23 19:03 | 55.49771 | 36.99752 | 11177 ft | 308 kts | 179° |
| 2026-04-23 19:03 | 55.47593 | 36.99750 | 10565 ft | 312 kts | 179° |
| 2026-04-23 19:03 | 55.45448 | 36.99746 | 9970 ft | 305 kts | 179° |
| 2026-04-23 19:03 | 55.43333 | 36.99747 | 9380 ft | 302 kts | 179° |
| 2026-04-23 19:04 | 55.41245 | 36.99747 | 8747 ft | 298 kts | 179° |
| 2026-04-23 19:04 | 55.39194 | 36.99465 | 8114 ft | 294 kts | 186° |
| 2026-04-23 19:04 | 55.37164 | 36.99062 | 7520 ft | 293 kts | 185° |
| 2026-04-23 19:04 | 55.35163 | 36.98708 | 6948 ft | 293 kts | 184° |
| 2026-04-23 19:05 | 55.33119 | 36.98469 | 6307 ft | 287 kts | 173° |
| 2026-04-23 19:05 | 55.31325 | 36.99651 | 5555 ft | 277 kts | 138° |
| 2026-04-23 19:05 | 55.30109 | 37.02145 | 4905 ft | 263 kts | 114° |
| 2026-04-23 19:05 | 55.29521 | 37.05058 | 4317 ft | 247 kts | 92° |
| 2026-04-23 19:06 | 55.29557 | 37.07959 | 3750 ft | 232 kts | 72° |
| 2026-04-23 19:06 | 55.30117 | 37.10521 | 3218 ft | 220 kts | 54° |
| 2026-04-23 19:06 | 55.31057 | 37.12477 | 3016 ft | 195 kts | 37° |
| 2026-04-23 19:06 | 55.32160 | 37.13734 | 3015 ft | 190 kts | 23° |
| 2026-04-23 19:07 | 55.33423 | 37.14391 | 3010 ft | 190 kts | 9° |
| 2026-04-23 19:07 | 55.34747 | 37.14456 | 3011 ft | 191 kts | 1° |
| 2026-04-23 19:07 | 55.36081 | 37.14449 | 3026 ft | 192 kts | 2° |
| 2026-04-23 19:07 | 55.37422 | 37.14302 | 2896 ft | 200 kts | 351° |
| 2026-04-23 19:08 | 55.38700 | 37.13452 | 2504 ft | 188 kts | 343° |
| 2026-04-23 19:08 | 55.39835 | 37.12702 | 2498 ft | 162 kts | 345° |
| 2026-04-23 19:08 | 55.40870 | 37.12055 | 2515 ft | 167 kts | 346° |
| 2026-04-23 19:08 | 55.42017 | 37.11336 | 2539 ft | 174 kts | 345° |
| 2026-04-23 19:09 | 55.43146 | 37.10605 | 2528 ft | 171 kts | 345° |
| 2026-04-23 19:09 | 55.44253 | 37.09892 | 2524 ft | 168 kts | 345° |
| 2026-04-23 19:09 | 55.45381 | 37.09170 | 2527 ft | 176 kts | 345° |
| 2026-04-23 19:09 | 55.46554 | 37.08414 | 2534 ft | 182 kts | 344° |
| 2026-04-23 19:10 | 55.47702 | 37.07669 | 2534 ft | 162 kts | 345° |
| 2026-04-23 19:10 | 55.48707 | 37.07022 | 2518 ft | 149 kts | 345° |
| 2026-04-23 19:10 | 55.49673 | 37.06406 | 2521 ft | 148 kts | 345° |
| 2026-04-23 19:10 | 55.50639 | 37.05788 | 2524 ft | 147 kts | 345° |
| 2026-04-23 19:11 | 55.51597 | 37.05171 | 2520 ft | 146 kts | 345° |
| 2026-04-23 19:11 | 55.52541 | 37.04780 | 2502 ft | 128 kts | 0° |
| 2026-04-23 19:11 | 55.53332 | 37.04972 | 2510 ft | 110 kts | 14° |
| 2026-04-23 19:11 | 55.54056 | 37.05573 | 2518 ft | 120 kts | 29° |
| 2026-04-23 19:12 | 55.54487 | 37.06245 | 2516 ft | 131 kts | 41° |
| 2026-04-23 19:12 | 55.55019 | 37.08113 | 2472 ft | 123 kts | 56° |
| 2026-04-23 19:12 | 55.55350 | 37.09445 | 2473 ft | 114 kts | 53° |
| 2026-04-23 19:12 | 55.55663 | 37.10728 | 2314 ft | 112 kts | 54° |
| 2026-04-23 19:13 | 55.55950 | 37.11993 | 2171 ft | 113 kts | 55° |
| 2026-04-23 19:13 | 55.56252 | 37.13301 | 2006 ft | 117 kts | 56° |
| 2026-04-23 19:13 | 55.56565 | 37.14633 | 1836 ft | 118 kts | 57° |
| 2026-04-23 19:13 | 55.56866 | 37.15976 | 1662 ft | 117 kts | 58° |
| 2026-04-23 19:14 | 55.57155 | 37.17294 | 1501 ft | 116 kts | 59° |
| 2026-04-23 19:14 | 55.57465 | 37.18637 | 1307 ft | 120 kts | 61° |
| 2026-04-23 19:14 | 55.57774 | 37.20024 | 1145 ft | 122 kts | 62° |
| 2026-04-23 19:14 | 55.58088 | 37.21424 | 978 ft | 123 kts | 61° |
| 2026-04-23 19:15 | 55.58406 | 37.22809 | 824 ft | 122 kts | 64° |
| 2026-04-23 19:15 | 55.58710 | 37.24181 | 694 ft | 116 kts | 64° |
| 2026-04-23 19:15 | 55.58979 | 37.25386 | 660 ft | 94 kts | 64° |
| 2026-04-23 19:15 | 55.59178 | 37.26236 | 665 ft | 57 kts | 69° |
| 2026-04-23 19:16 | 55.59338 | 37.26671 | 665 ft | 37 kts | 43° |
| 2026-04-23 19:16 | 55.59491 | 37.26908 | 665 ft | 11 kts | 26° |
| 2026-04-23 19:16 | 55.59541 | 37.26866 | 665 ft | 8 kts | 299° |
| 2026-04-23 19:17 | 55.59476 | 37.26551 | 665 ft | 21 kts | 248° |
| 2026-04-23 19:17 | 55.59415 | 37.26274 | 665 ft | 28 kts | 248° |
| 2026-04-23 19:17 | 55.59339 | 37.25935 | 665 ft | 30 kts | 248° |
| 2026-04-23 19:17 | 55.59323 | 37.25686 | 668 ft | 14 kts | 331° |
| 2026-04-23 19:18 | 55.59370 | 37.25597 | 675 ft | 12 kts | 292° |
| 2026-04-23 19:18 | 55.59413 | 37.25424 | 676 ft | 18 kts | 293° |
| 2026-04-23 19:18 | 55.59439 | 37.25369 | 677 ft | 7 kts | 37° |
| 2026-04-23 19:18 | 55.59469 | 37.25395 | 677 ft | 2 kts | 24° |
| 2026-04-23 19:19 | 55.59476 | 37.25400 | 677 ft | 0 kts | 23° |